createdAt,value
2022-10-01T00:05:18.329Z,56.06
2022-10-01T00:11:53.317Z,56.13
2022-10-01T00:18:18.127Z,56.10
2022-10-01T00:24:42.542Z,56.12
2022-10-01T00:31:07.337Z,56.14
2022-10-01T00:37:33.865Z,56.15
2022-10-01T00:51:14.069Z,56.35
2022-10-01T00:57:41.465Z,56.39
2022-10-01T01:04:11.917Z,56.39
2022-10-01T01:10:36.565Z,56.42
2022-10-01T01:17:37.096Z,56.64
2022-10-01T01:24:37.156Z,56.88
2022-10-01T01:31:08.793Z,56.97
2022-10-01T01:37:34.409Z,57.06
2022-10-01T01:57:53.047Z,57.13
2022-10-01T02:04:18.588Z,57.07
2022-10-01T02:11:00.877Z,57.15
2022-10-01T02:17:31.182Z,57.20
2022-10-01T02:23:55.476Z,57.20
2022-10-01T02:30:19.993Z,57.25
2022-10-01T02:36:44.375Z,57.32
2022-10-01T02:43:08.746Z,57.37
2022-10-01T02:49:34.302Z,57.44
2022-10-01T02:56:08.518Z,57.45
2022-10-01T03:02:34.447Z,57.49
2022-10-01T03:09:04.623Z,57.52
2022-10-01T03:15:30.025Z,57.55
2022-10-01T03:22:00.192Z,57.46
2022-10-01T03:28:49.150Z,57.47
2022-10-01T03:35:42.484Z,57.42
2022-10-01T03:42:14.048Z,57.38
2022-10-01T03:55:30.114Z,57.53
2022-10-01T04:01:54.620Z,57.60
2022-10-01T04:08:24.370Z,57.60
2022-10-01T04:14:58.205Z,57.62
2022-10-01T04:21:23.061Z,57.65
2022-10-01T04:27:47.647Z,57.67
2022-10-01T04:34:16.795Z,57.52
2022-10-01T04:40:41.272Z,57.29
2022-10-01T04:47:05.830Z,56.98
2022-10-01T04:53:30.488Z,56.54
2022-10-01T04:59:56.949Z,56.11
2022-10-01T05:06:21.559Z,55.68
2022-10-01T05:12:46.161Z,55.24
2022-10-01T05:19:10.837Z,54.85
2022-10-01T05:25:35.352Z,54.43
2022-10-01T05:32:08.642Z,54.04
2022-10-01T05:38:39.401Z,53.74
2022-10-01T05:45:04.061Z,53.44
2022-10-01T05:51:28.441Z,53.14
2022-10-01T05:57:55.369Z,52.86
2022-10-01T06:03:59.277Z,52.62
2022-10-01T06:10:23.772Z,52.46
2022-10-01T06:16:48.110Z,52.22
2022-10-01T06:23:12.656Z,52.05
2022-10-01T06:29:36.922Z,51.99
2022-10-01T06:36:01.205Z,51.93
2022-10-01T06:42:25.497Z,51.83
2022-10-01T06:48:49.834Z,51.73
2022-10-01T06:55:16.698Z,51.71
2022-10-01T07:01:34.733Z,51.93
2022-10-01T07:07:59.213Z,52.36
2022-10-01T07:14:23.542Z,52.65
2022-10-01T07:20:41.956Z,52.87
2022-10-01T07:27:07.496Z,53.03
2022-10-01T07:33:32.008Z,53.14
2022-10-01T07:39:56.370Z,53.25
2022-10-01T07:46:20.925Z,53.35
2022-10-01T07:52:45.685Z,53.44
2022-10-01T07:59:09.987Z,53.52
2022-10-01T08:05:42.828Z,53.47
2022-10-01T08:12:07.326Z,53.56
2022-10-01T08:18:31.549Z,53.63
2022-10-01T08:24:56.348Z,53.68
2022-10-01T08:31:20.697Z,53.77
2022-10-01T08:37:45.089Z,53.87
2022-10-01T08:44:07.872Z,53.70
2022-10-01T08:50:32.441Z,53.76
2022-10-01T08:56:59.561Z,53.95
2022-10-01T09:03:24.068Z,53.88
2022-10-01T09:09:48.361Z,53.57
2022-10-01T09:16:19.232Z,53.15
2022-10-01T09:22:59.772Z,52.90
2022-10-01T09:29:27.200Z,52.51
2022-10-01T09:35:52.058Z,52.32
2022-10-01T09:42:16.341Z,52.05
2022-10-01T09:48:40.771Z,51.80
2022-10-01T09:55:03.447Z,51.58
2022-10-01T10:01:27.790Z,51.47
2022-10-01T10:07:55.014Z,51.35
2022-10-01T10:14:21.818Z,51.17
2022-10-01T10:20:48.842Z,51.05
2022-10-01T10:27:01.361Z,50.90
2022-10-01T10:33:28.807Z,50.77
2022-10-01T10:39:56.760Z,50.72
2022-10-01T10:46:20.097Z,50.73
2022-10-01T10:52:45.816Z,50.78
2022-10-01T10:59:10.172Z,50.80
2022-10-01T11:05:43.556Z,50.83
2022-10-01T11:12:13.818Z,50.94
2022-10-01T11:18:38.102Z,51.08
2022-10-01T11:25:08.372Z,51.18
2022-10-01T11:31:51.179Z,51.28
2022-10-01T11:38:27.855Z,51.37
2022-10-01T11:44:59.851Z,51.48
2022-10-01T11:51:25.146Z,51.59
2022-10-01T11:57:48.017Z,51.64
2022-10-01T12:04:15.501Z,51.70
2022-10-01T12:10:34.352Z,51.75
2022-10-01T12:17:01.798Z,51.80
2022-10-01T12:23:26.132Z,51.84
2022-10-01T12:29:53.365Z,51.90
2022-10-01T12:36:23.508Z,51.98
2022-10-01T12:42:59.872Z,52.00
2022-10-01T12:49:41.114Z,51.96
2022-10-01T12:56:11.149Z,51.74
2022-10-01T13:02:53.394Z,51.54
2022-10-01T13:09:15.884Z,51.67
2022-10-01T13:15:41.847Z,51.84
2022-10-01T13:22:07.552Z,52.05
2022-10-01T13:28:56.238Z,52.36
2022-10-01T13:35:35.891Z,52.68
2022-10-01T13:42:12.290Z,53.00
2022-10-01T13:48:45.317Z,53.20
2022-10-01T13:55:09.829Z,53.26
2022-10-01T14:01:34.209Z,53.53
2022-10-01T14:08:17.200Z,53.75
2022-10-01T14:14:48.672Z,53.95
2022-10-01T14:21:18.813Z,54.10
2022-10-01T14:27:54.986Z,54.24
2022-10-01T14:34:23.711Z,54.36
2022-10-01T14:40:47.904Z,54.47
2022-10-01T14:47:12.222Z,54.49
2022-10-01T14:53:36.543Z,54.42
2022-10-01T15:00:00.758Z,54.28
2022-10-01T15:06:24.897Z,54.00
2022-10-01T15:12:49.112Z,53.67
2022-10-01T15:19:12.435Z,53.39
2022-10-01T15:25:36.666Z,53.15
2022-10-01T15:32:00.833Z,53.02
2022-10-01T15:38:25.023Z,52.82
2022-10-01T15:44:49.218Z,52.68
2022-10-01T15:51:15.357Z,52.59
2022-10-01T15:57:39.489Z,52.47
2022-10-01T16:04:12.994Z,52.51
2022-10-01T16:10:37.080Z,52.56
2022-10-01T16:17:06.922Z,52.59
2022-10-01T16:23:31.023Z,52.65
2022-10-01T16:29:53.824Z,52.71
2022-10-01T16:36:20.882Z,52.75
2022-10-01T16:42:45.037Z,52.80
2022-10-01T16:49:15.093Z,52.83
2022-10-01T16:56:27.055Z,52.91
2022-10-01T17:02:51.711Z,52.95
2022-10-01T17:09:15.916Z,52.97
2022-10-01T17:15:34.361Z,53.02
2022-10-01T17:21:41.679Z,53.05
2022-10-01T17:28:05.893Z,53.09
2022-10-01T17:34:30.143Z,53.17
2022-10-01T17:40:34.538Z,53.22
2022-10-01T17:46:58.647Z,53.38
2022-10-01T17:53:22.742Z,53.60
2022-10-01T17:59:47.069Z,53.78
2022-10-01T18:06:11.533Z,53.94
2022-10-01T18:12:35.649Z,54.07
2022-10-01T18:25:43.925Z,54.23
2022-10-01T18:32:08.227Z,54.27
2022-10-01T18:38:56.536Z,54.30
2022-10-01T18:45:22.173Z,54.34
2022-10-01T18:52:07.494Z,54.40
2022-10-01T18:58:36.215Z,54.48
2022-10-01T19:05:12.663Z,54.55
2022-10-01T19:11:51.956Z,54.61
2022-10-01T19:18:22.138Z,54.63
2022-10-01T19:25:01.384Z,54.67
2022-10-01T19:31:25.765Z,54.71
2022-10-01T19:37:53.082Z,54.74
2022-10-01T19:44:35.301Z,54.75
2022-10-01T19:50:59.597Z,54.78
2022-10-01T19:57:23.824Z,54.86
2022-10-01T20:03:52.330Z,54.90
2022-10-01T20:10:29.041Z,54.92
2022-10-01T20:17:05.310Z,54.97
2022-10-01T20:23:35.394Z,54.99
2022-10-01T20:30:13.604Z,55.00
2022-10-01T20:36:16.133Z,54.99
2022-10-01T20:42:40.302Z,54.93
2022-10-01T20:49:13.329Z,55.01
2022-10-01T20:55:37.613Z,55.07
2022-10-01T21:02:04.849Z,55.11
2022-10-01T21:08:37.940Z,55.19
2022-10-01T21:15:08.103Z,55.22
2022-10-01T21:21:50.535Z,55.20
2022-10-01T21:28:29.611Z,55.20
2022-10-01T21:34:44.053Z,55.18
2022-10-01T21:41:18.047Z,55.21
2022-10-01T21:47:50.368Z,55.31
2022-10-01T21:54:42.105Z,55.40
2022-10-01T22:01:10.483Z,55.38
2022-10-01T22:07:40.562Z,55.38
2022-10-01T22:14:04.845Z,55.43
2022-10-01T22:20:36.986Z,55.43
2022-10-01T22:27:01.188Z,55.41
2022-10-01T22:33:25.483Z,55.41
2022-10-01T22:40:02.652Z,55.42
2022-10-01T22:46:38.884Z,55.38
2022-10-01T22:53:09.378Z,55.36
2022-10-01T22:59:50.916Z,55.33
2022-10-01T23:06:24.252Z,55.31
2022-10-01T23:12:48.992Z,55.32
2022-10-01T23:19:14.789Z,55.34
2022-10-01T23:25:59.390Z,55.40
2022-10-01T23:32:29.510Z,55.45
2022-10-01T23:38:56.976Z,55.50
2022-10-01T23:45:23.348Z,55.55
2022-10-01T23:52:04.031Z,55.64
